createdAt,value
2023-05-13T00:02:21.328Z,13.7
2023-05-13T00:05:21.316Z,13.7
2023-05-13T00:08:21.320Z,13.7
2023-05-13T00:11:21.325Z,13.7
2023-05-13T00:14:21.328Z,13.7
2023-05-13T00:17:21.336Z,13.7
2023-05-13T00:20:21.528Z,13.7
2023-05-13T00:23:21.346Z,13.7
2023-05-13T00:26:21.356Z,13.7
2023-05-13T00:29:21.359Z,13.7
2023-05-13T00:32:21.397Z,13.6
2023-05-13T00:35:21.370Z,13.6
2023-05-13T00:38:21.379Z,13.7
2023-05-13T00:41:21.396Z,13.6
2023-05-13T00:44:21.402Z,13.6
2023-05-13T00:47:21.444Z,13.6
2023-05-13T00:50:21.656Z,13.6
2023-05-13T00:53:21.420Z,13.6
2023-05-13T00:56:21.436Z,13.6
2023-05-13T00:59:21.516Z,13.6
2023-05-13T01:02:21.459Z,13.6
2023-05-13T01:05:21.447Z,13.6
2023-05-13T01:08:21.454Z,13.6
2023-05-13T01:11:21.463Z,13.6
2023-05-13T01:14:21.477Z,13.6
2023-05-13T01:17:21.489Z,13.6
2023-05-13T01:20:21.657Z,13.6
2023-05-13T01:23:21.490Z,13.6
2023-05-13T01:26:21.520Z,13.6
2023-05-13T01:29:21.512Z,13.6
2023-05-13T01:32:21.511Z,13.6
2023-05-13T01:35:21.527Z,13.6
2023-05-13T01:38:21.543Z,13.6
2023-05-13T01:41:21.539Z,13.6
2023-05-13T01:44:21.557Z,13.6
2023-05-13T01:47:21.569Z,13.6
2023-05-13T01:50:21.790Z,13.6
2023-05-13T01:53:21.574Z,13.6
2023-05-13T01:56:21.573Z,13.6
2023-05-13T01:59:21.591Z,13.6
2023-05-13T02:02:21.606Z,13.6
2023-05-13T02:05:21.607Z,13.6
2023-05-13T02:08:21.622Z,13.5
2023-05-13T02:11:21.624Z,13.5
2023-05-13T02:14:21.628Z,13.5
2023-05-13T02:17:21.723Z,13.5
2023-05-13T02:20:21.807Z,13.5
2023-05-13T02:23:21.660Z,13.5
2023-05-13T02:26:21.665Z,13.5
2023-05-13T02:29:21.683Z,13.5
2023-05-13T02:32:21.685Z,13.5
2023-05-13T02:35:21.693Z,13.5
2023-05-13T02:38:21.705Z,13.5
2023-05-13T02:41:21.713Z,13.5
2023-05-13T02:44:21.709Z,13.5
2023-05-13T02:47:21.734Z,13.4
2023-05-13T02:50:21.867Z,13.4
2023-05-13T02:53:21.751Z,13.4
2023-05-13T02:56:21.755Z,13.4
2023-05-13T02:59:21.765Z,13.4
2023-05-13T03:02:21.871Z,13.4
2023-05-13T03:05:21.773Z,13.4
2023-05-13T03:08:21.780Z,13.4
2023-05-13T03:11:21.810Z,13.4
2023-05-13T03:14:21.798Z,13.4
2023-05-13T03:17:21.836Z,13.4
2023-05-13T03:20:21.968Z,13.4
2023-05-13T03:23:21.810Z,13.4
2023-05-13T03:26:21.812Z,13.4
2023-05-13T03:29:21.821Z,13.4
2023-05-13T03:32:21.839Z,13.4
2023-05-13T03:35:21.834Z,13.4
2023-05-13T03:38:21.836Z,13.4
2023-05-13T03:41:21.839Z,13.4
2023-05-13T03:44:21.848Z,13.4
2023-05-13T03:47:21.851Z,13.4
2023-05-13T03:50:21.986Z,13.4
2023-05-13T03:53:21.854Z,13.4
2023-05-13T03:56:21.872Z,13.3
2023-05-13T03:59:21.865Z,13.3
2023-05-13T04:02:21.985Z,13.3
2023-05-13T04:05:21.885Z,13.3
2023-05-13T04:08:21.882Z,13.3
2023-05-13T04:11:21.878Z,13.3
2023-05-13T04:14:21.881Z,13.3
2023-05-13T04:17:21.919Z,13.3
2023-05-13T04:20:22.036Z,13.3
2023-05-13T04:23:21.903Z,13.3
2023-05-13T04:26:21.901Z,13.3
2023-05-13T04:29:21.905Z,13.3
2023-05-13T04:32:22.220Z,13.3
2023-05-13T04:35:21.917Z,13.3
2023-05-13T04:38:21.920Z,13.3
2023-05-13T04:41:21.923Z,13.3
2023-05-13T04:44:21.924Z,13.3
2023-05-13T04:47:21.975Z,13.3
2023-05-13T04:50:22.123Z,13.3
2023-05-13T04:53:21.940Z,13.3
2023-05-13T04:56:21.948Z,13.3
2023-05-13T04:59:21.954Z,13.3
2023-05-13T05:02:21.955Z,13.3
2023-05-13T05:05:21.966Z,13.3
2023-05-13T05:08:21.970Z,13.3
2023-05-13T05:11:21.974Z,13.3
2023-05-13T05:14:21.982Z,13.3
2023-05-13T05:17:22.025Z,13.2
2023-05-13T05:20:22.138Z,13.2
2023-05-13T05:23:22.001Z,13.2
2023-05-13T05:26:21.988Z,13.2
2023-05-13T05:29:21.996Z,13.2
2023-05-13T05:32:22.012Z,13.2
2023-05-13T05:35:22.014Z,13.2
2023-05-13T05:38:22.011Z,13.2
2023-05-13T05:41:22.013Z,13.2
2023-05-13T05:44:22.022Z,13.2
2023-05-13T05:47:22.085Z,13.2
2023-05-13T05:50:22.204Z,13.2
2023-05-13T05:53:22.043Z,13.1
2023-05-13T05:56:22.028Z,13.2
2023-05-13T05:59:22.040Z,13.1
2023-05-13T06:02:22.066Z,13.1
2023-05-13T06:05:22.046Z,13.1
2023-05-13T06:08:22.063Z,13.1
2023-05-13T06:11:22.075Z,13.1
2023-05-13T06:14:22.068Z,13.1
2023-05-13T06:17:22.067Z,13.1
2023-05-13T06:20:22.406Z,13.1
2023-05-13T06:23:22.081Z,13.1
2023-05-13T06:26:22.100Z,13.1
2023-05-13T06:29:22.092Z,13.1
2023-05-13T06:32:22.098Z,13.1
2023-05-13T06:35:22.108Z,13.1
2023-05-13T06:38:22.118Z,13.1
2023-05-13T06:41:22.118Z,13.1
2023-05-13T06:44:22.118Z,13.1
2023-05-13T06:47:23.907Z,13.1
2023-05-13T06:50:22.328Z,13.1
2023-05-13T06:53:22.130Z,13.1
2023-05-13T06:56:22.132Z,13.1
2023-05-13T06:59:22.137Z,13.1
2023-05-13T07:02:22.166Z,13.1
2023-05-13T07:05:22.141Z,13.1
2023-05-13T07:08:22.153Z,13.1
2023-05-13T07:11:22.152Z,13
2023-05-13T07:14:22.148Z,13.1
2023-05-13T07:17:22.230Z,13
2023-05-13T07:20:22.581Z,13
2023-05-13T07:23:22.157Z,13
2023-05-13T07:26:22.178Z,13
2023-05-13T07:29:22.171Z,13
2023-05-13T07:32:22.223Z,13
2023-05-13T07:35:22.358Z,13
2023-05-13T07:38:22.191Z,13
2023-05-13T07:41:22.193Z,13
2023-05-13T07:44:22.205Z,13
2023-05-13T07:47:22.234Z,13
2023-05-13T07:50:22.206Z,13
2023-05-13T07:53:22.196Z,13
2023-05-13T07:56:22.220Z,13
2023-05-13T07:59:22.212Z,13
2023-05-13T08:02:22.246Z,12.9
2023-05-13T08:05:22.337Z,12.9
2023-05-13T08:08:22.227Z,12.9
2023-05-13T08:11:22.230Z,12.9
2023-05-13T08:14:22.232Z,12.9
2023-05-13T08:17:22.259Z,12.9
2023-05-13T08:20:22.249Z,12.9
2023-05-13T08:23:26.379Z,12.9
2023-05-13T08:26:22.254Z,12.9
2023-05-13T08:29:22.256Z,12.9
2023-05-13T08:32:22.284Z,12.9
2023-05-13T08:35:22.419Z,12.9
2023-05-13T08:38:22.274Z,12.9
2023-05-13T08:41:22.277Z,12.9
2023-05-13T08:44:22.280Z,12.9
2023-05-13T08:47:22.349Z,12.9
2023-05-13T08:50:22.359Z,12.9
2023-05-13T08:53:22.299Z,12.9
2023-05-13T08:56:22.322Z,12.9
2023-05-13T08:59:22.303Z,12.9
2023-05-13T09:02:22.326Z,12.9
2023-05-13T09:05:22.598Z,12.9
2023-05-13T09:08:22.331Z,12.9
2023-05-13T09:11:22.320Z,12.9
2023-05-13T09:14:22.336Z,13
2023-05-13T09:17:22.360Z,13
2023-05-13T09:20:22.359Z,12.9
2023-05-13T09:23:22.350Z,12.9
2023-05-13T09:26:22.341Z,12.9
2023-05-13T09:29:22.366Z,12.9
2023-05-13T09:32:22.365Z,12.9
2023-05-13T09:35:22.489Z,12.9
2023-05-13T09:38:22.418Z,12.9
2023-05-13T09:41:22.445Z,12.9
2023-05-13T09:44:22.460Z,12.9
2023-05-13T09:47:22.478Z,12.9
2023-05-13T09:50:22.629Z,12.9
2023-05-13T09:53:22.473Z,12.9
2023-05-13T09:56:22.479Z,12.9
2023-05-13T09:59:22.505Z,12.9
2023-05-13T10:02:22.541Z,12.9
2023-05-13T10:05:22.480Z,12.9
2023-05-13T10:08:22.484Z,12.9
2023-05-13T10:11:22.489Z,12.9
2023-05-13T10:14:22.491Z,12.9
2023-05-13T10:17:22.488Z,12.9
2023-05-13T10:20:22.692Z,12.9
2023-05-13T10:23:22.541Z,12.9
2023-05-13T10:26:22.495Z,12.9
2023-05-13T10:29:22.495Z,12.9
2023-05-13T10:32:22.488Z,12.9
2023-05-13T10:35:22.495Z,12.9
2023-05-13T10:38:22.486Z,12.9
2023-05-13T10:41:22.484Z,12.9
2023-05-13T10:44:22.490Z,12.9
2023-05-13T10:47:22.514Z,12.9
2023-05-13T10:50:22.734Z,12.9
2023-05-13T10:53:22.484Z,12.9
2023-05-13T10:56:22.488Z,12.9
2023-05-13T10:59:22.489Z,13
2023-05-13T11:02:22.648Z,12.9
2023-05-13T11:05:22.496Z,13
2023-05-13T11:08:22.494Z,13
2023-05-13T11:11:22.573Z,13
2023-05-13T11:14:22.512Z,13
2023-05-13T11:17:22.492Z,13
2023-05-13T11:20:22.705Z,13
2023-05-13T11:23:22.496Z,13
2023-05-13T11:26:22.495Z,13
2023-05-13T11:29:22.503Z,13
2023-05-13T11:32:22.501Z,13
2023-05-13T11:35:22.504Z,13
2023-05-13T11:38:22.507Z,13.1
2023-05-13T11:41:22.499Z,13
2023-05-13T11:44:22.507Z,13.1
2023-05-13T11:47:22.508Z,13.1
2023-05-13T11:50:22.513Z,13.1
2023-05-13T11:53:22.675Z,13.1
2023-05-13T11:56:22.597Z,13.1
2023-05-13T11:59:22.522Z,13.1
2023-05-13T12:02:22.793Z,13.1
2023-05-13T12:05:22.840Z,13.1
2023-05-13T12:08:23.737Z,13.1
2023-05-13T12:11:22.547Z,13.1
2023-05-13T12:14:22.552Z,13.1
2023-05-13T12:17:22.562Z,13.1
2023-05-13T12:20:22.557Z,13.1
2023-05-13T12:23:22.569Z,13.1
2023-05-13T12:26:22.558Z,13.1
2023-05-13T12:29:22.561Z,13.2
2023-05-13T12:32:22.581Z,13.2
2023-05-13T12:35:22.720Z,13.2
2023-05-13T12:38:22.599Z,13.2
2023-05-13T12:41:22.579Z,13.2
2023-05-13T12:44:22.572Z,13.2
2023-05-13T12:47:22.587Z,13.2
2023-05-13T12:50:22.578Z,13.3
2023-05-13T12:53:22.582Z,13.3
2023-05-13T12:56:22.588Z,13.3
2023-05-13T12:59:22.586Z,13.3
2023-05-13T13:02:22.624Z,13.3
2023-05-13T13:05:22.894Z,13.3
2023-05-13T13:08:22.602Z,13.3
2023-05-13T13:11:22.601Z,13.3
2023-05-13T13:14:22.615Z,13.3
2023-05-13T13:17:22.617Z,13.3
2023-05-13T13:20:22.631Z,13.3
2023-05-13T13:23:22.621Z,13.3
2023-05-13T13:26:22.621Z,13.4
2023-05-13T13:29:22.634Z,13.4
2023-05-13T13:32:22.722Z,13.4
2023-05-13T13:35:22.799Z,13.4
2023-05-13T13:38:22.642Z,13.4
2023-05-13T13:41:22.652Z,13.4
2023-05-13T13:44:22.659Z,13.4
2023-05-13T13:47:22.690Z,13.4
2023-05-13T13:50:22.843Z,13.4
2023-05-13T13:53:22.690Z,13.4
2023-05-13T13:56:22.689Z,13.4
2023-05-13T13:59:22.685Z,13.4
2023-05-13T14:02:22.767Z,13.5
2023-05-13T14:05:22.708Z,13.5
2023-05-13T14:08:22.714Z,13.5
2023-05-13T14:11:22.720Z,13.5
2023-05-13T14:14:22.726Z,13.5
2023-05-13T14:17:22.755Z,13.5
2023-05-13T14:20:22.990Z,13.6
2023-05-13T14:23:22.753Z,13.6
2023-05-13T14:26:22.761Z,13.6
2023-05-13T14:29:22.772Z,13.6
2023-05-13T14:32:22.778Z,13.6
2023-05-13T14:35:22.799Z,13.6
2023-05-13T14:38:22.787Z,13.6
2023-05-13T14:41:22.818Z,13.6
2023-05-13T14:44:22.805Z,13.6
2023-05-13T14:47:22.805Z,13.6
2023-05-13T14:50:23.017Z,13.6
2023-05-13T14:53:22.811Z,13.6
2023-05-13T14:56:22.816Z,13.6
2023-05-13T14:59:22.819Z,13.7
2023-05-13T15:02:22.931Z,13.7
2023-05-13T15:05:22.831Z,13.9
2023-05-13T15:08:22.830Z,14.1
2023-05-13T15:11:22.832Z,14.1
2023-05-13T15:14:22.835Z,14.2
2023-05-13T15:17:22.914Z,14.2
2023-05-13T15:20:23.040Z,14.2
2023-05-13T15:23:22.863Z,14.2
2023-05-13T15:26:22.873Z,14.2
2023-05-13T15:29:22.873Z,14.2
2023-05-13T15:32:22.889Z,14.2
2023-05-13T15:35:22.894Z,14.1
2023-05-13T15:38:22.897Z,14.1
2023-05-13T15:41:23.123Z,14.1
2023-05-13T15:44:22.900Z,14.1
2023-05-13T15:47:22.966Z,14.1
2023-05-13T15:50:23.215Z,14.1
2023-05-13T15:53:22.907Z,14.1
2023-05-13T15:56:22.912Z,14.1
2023-05-13T15:59:22.929Z,14
2023-05-13T16:02:22.919Z,14
2023-05-13T16:05:22.930Z,14
2023-05-13T16:08:22.927Z,14
2023-05-13T16:11:22.929Z,14
2023-05-13T16:14:22.937Z,14
2023-05-13T16:17:22.943Z,14
2023-05-13T16:20:23.128Z,14
2023-05-13T16:23:22.957Z,14
2023-05-13T16:26:22.961Z,14
2023-05-13T16:29:22.957Z,14
2023-05-13T16:32:23.014Z,13.9
2023-05-13T16:35:22.993Z,14
2023-05-13T16:38:22.979Z,13.9
2023-05-13T16:41:22.984Z,13.9
2023-05-13T16:44:23.106Z,14
2023-05-13T16:47:22.991Z,13.9
2023-05-13T16:50:23.182Z,13.9
2023-05-13T16:53:23.010Z,13.9
2023-05-13T16:56:23.011Z,14
2023-05-13T16:59:23.020Z,13.9
2023-05-13T17:02:23.120Z,14
2023-05-13T17:05:23.030Z,13.9
2023-05-13T17:08:23.028Z,14
2023-05-13T17:11:23.038Z,13.9
2023-05-13T17:14:23.048Z,14
2023-05-13T17:17:23.079Z,14
2023-05-13T17:20:23.182Z,14
2023-05-13T17:23:23.048Z,14
2023-05-13T17:26:23.052Z,14
2023-05-13T17:29:23.063Z,14
2023-05-13T17:32:23.097Z,14
2023-05-13T17:35:23.068Z,14
2023-05-13T17:38:23.083Z,14
2023-05-13T17:41:23.083Z,14
2023-05-13T17:44:23.110Z,14
2023-05-13T17:47:23.084Z,14
2023-05-13T17:50:23.309Z,14
2023-05-13T17:53:23.092Z,14
2023-05-13T17:56:23.101Z,14
2023-05-13T17:59:23.118Z,14
2023-05-13T18:02:23.135Z,14
2023-05-13T18:05:23.184Z,14
2023-05-13T18:08:23.119Z,14
2023-05-13T18:11:23.122Z,14
2023-05-13T18:14:23.133Z,14
2023-05-13T18:17:23.177Z,14
2023-05-13T18:20:23.240Z,14
2023-05-13T18:23:23.128Z,14
2023-05-13T18:26:23.159Z,14
2023-05-13T18:29:23.153Z,14
2023-05-13T18:32:23.186Z,14
2023-05-13T18:35:23.159Z,14
2023-05-13T18:38:23.158Z,14
2023-05-13T18:41:23.181Z,14
2023-05-13T18:44:23.195Z,14
2023-05-13T18:47:23.199Z,14
2023-05-13T18:50:23.310Z,14
2023-05-13T18:53:23.185Z,14
2023-05-13T18:56:23.177Z,14
2023-05-13T18:59:23.225Z,14
2023-05-13T19:02:23.313Z,14
2023-05-13T19:05:23.202Z,14
2023-05-13T19:08:23.208Z,14
2023-05-13T19:11:23.210Z,14
2023-05-13T19:14:23.222Z,14
2023-05-13T19:17:23.270Z,14
2023-05-13T19:20:23.359Z,14
2023-05-13T19:23:23.218Z,14
2023-05-13T19:26:23.226Z,14
2023-05-13T19:29:23.242Z,14
2023-05-13T19:32:23.254Z,14
2023-05-13T19:35:23.285Z,14
2023-05-13T19:38:23.243Z,14
2023-05-13T19:41:23.279Z,14
2023-05-13T19:44:23.285Z,14
2023-05-13T19:47:23.264Z,14
2023-05-13T19:50:23.480Z,14
2023-05-13T19:53:23.262Z,14
2023-05-13T19:56:23.271Z,14
2023-05-13T19:59:23.287Z,14
2023-05-13T20:02:23.285Z,14
2023-05-13T20:05:23.286Z,14
2023-05-13T20:08:23.283Z,14
2023-05-13T20:11:23.291Z,14
2023-05-13T20:14:23.311Z,14
2023-05-13T20:17:23.341Z,14
2023-05-13T20:20:23.472Z,14
2023-05-13T20:23:23.309Z,14
2023-05-13T20:26:23.314Z,14
2023-05-13T20:29:23.331Z,13.9
2023-05-13T20:32:23.379Z,14
2023-05-13T20:35:23.329Z,14
2023-05-13T20:38:23.324Z,13.9
2023-05-13T20:41:23.325Z,13.9
2023-05-13T20:44:23.356Z,13.9
2023-05-13T20:47:23.360Z,13.9
2023-05-13T20:50:23.534Z,13.9
2023-05-13T20:53:23.359Z,13.9
2023-05-13T20:56:23.350Z,13.9
2023-05-13T20:59:23.373Z,13.9
2023-05-13T21:02:23.427Z,13.9
2023-05-13T21:05:23.477Z,13.9
2023-05-13T21:08:23.386Z,13.9
2023-05-13T21:11:23.381Z,13.9
2023-05-13T21:14:23.397Z,13.9
2023-05-13T21:17:23.385Z,13.9
2023-05-13T21:20:23.580Z,13.9
2023-05-13T21:23:23.390Z,13.9
2023-05-13T21:26:23.400Z,13.9
2023-05-13T21:29:23.429Z,13.9
2023-05-13T21:32:23.437Z,13.9
2023-05-13T21:35:23.414Z,13.9
2023-05-13T21:38:23.432Z,13.9
2023-05-13T21:41:23.421Z,13.9
2023-05-13T21:44:23.444Z,13.9
2023-05-13T21:47:23.428Z,13.9
2023-05-13T21:50:23.594Z,13.9
2023-05-13T21:53:23.448Z,13.9
2023-05-13T21:56:23.449Z,13.9
2023-05-13T21:59:23.459Z,13.9
2023-05-13T22:02:23.508Z,13.9
2023-05-13T22:05:23.456Z,13.9
2023-05-13T22:08:23.471Z,13.9
2023-05-13T22:11:23.467Z,13.9
2023-05-13T22:14:23.497Z,13.9
2023-05-13T22:17:23.554Z,13.9
2023-05-13T22:20:23.669Z,13.9
2023-05-13T22:23:23.477Z,13.9
2023-05-13T22:26:23.489Z,13.9
2023-05-13T22:29:23.506Z,13.9
2023-05-13T22:32:23.509Z,13.9
2023-05-13T22:35:23.496Z,13.9
2023-05-13T22:38:23.512Z,13.9
2023-05-13T22:41:23.511Z,13.9
2023-05-13T22:44:23.544Z,13.9
2023-05-13T22:47:23.544Z,13.9
2023-05-13T22:50:23.668Z,13.8
2023-05-13T22:53:23.524Z,13.9
2023-05-13T22:56:23.538Z,13.8
2023-05-13T22:59:23.541Z,13.8
2023-05-13T23:02:23.593Z,13.8
2023-05-13T23:05:23.540Z,13.8
2023-05-13T23:08:23.549Z,13.9
2023-05-13T23:11:23.542Z,13.8
2023-05-13T23:14:23.572Z,13.8
2023-05-13T23:17:23.591Z,13.8
2023-05-13T23:20:23.737Z,13.8
2023-05-13T23:23:23.563Z,13.8
2023-05-13T23:26:23.572Z,13.8
2023-05-13T23:29:23.583Z,13.8
2023-05-13T23:32:23.645Z,13.8
2023-05-13T23:35:23.585Z,13.8
2023-05-13T23:38:23.594Z,13.8
2023-05-13T23:41:23.590Z,13.8
2023-05-13T23:44:23.617Z,13.8
2023-05-13T23:47:23.635Z,13.8
2023-05-13T23:50:23.786Z,13.8
2023-05-13T23:53:23.613Z,13.8
2023-05-13T23:56:23.632Z,13.8
2023-05-13T23:59:23.634Z,13.8
